Time;durP1;ratioP1;P1;durP2;ratioP2;P2;SDS_P1;SDS_P2;PMS_P1;PMS_P2;Temp;Humidity;BMP_temperature;BMP_pressure;BME280_temperature;BME280_humidity;BME280_pressure;Samples;Min_cycle;Max_cycle;Signal;HPM_P1;HPM_P2
2023/02/28 06:18:03;;;;;;;29.08;16.33;;;;;;;;;;5321970;23;20064;-62
2023/02/28 06:20:29;;;;;;;32.20;17.85;;;;;;;;;;4895615;29;20048;-60
2023/02/28 06:22:58;;;;;;;33.63;17.65;;;;;;;;;;4895504;29;20372;-62
2023/02/28 06:25:24;;;;;;;33.22;17.88;;;;;;;;;;4895484;29;20036;-61
2023/02/28 06:27:51;;;;;;;33.17;17.83;;;;;;;;;;4895808;29;20032;-66
2023/02/28 06:30:17;;;;;;;32.33;17.60;;;;;;;;;;4895772;29;20024;-63
2023/02/28 06:32:43;;;;;;;33.35;18.35;;;;;;;;;;4895651;29;20108;-58
2023/02/28 06:35:09;;;;;;;36.25;21.15;;;;;;;;;;4895687;29;20035;-64
2023/02/28 06:37:35;;;;;;;36.13;19.88;;;;;;;;;;4895720;29;20452;-60
2023/02/28 06:40:02;;;;;;;37.63;18.88;;;;;;;;;;4895563;29;20029;-58
2023/02/28 06:42:30;;;;;;;37.25;19.20;;;;;;;;;;4895550;29;20036;-58
2023/02/28 06:44:57;;;;;;;31.58;18.30;;;;;;;;;;4895283;29;20101;-58
2023/02/28 06:47:23;;;;;;;34.63;18.88;;;;;;;;;;4895246;29;20067;-63
2023/02/28 06:49:49;;;;;;;35.35;19.20;;;;;;;;;;4895110;29;20044;-59
2023/02/28 06:52:15;;;;;;;35.13;19.70;;;;;;;;;;4896338;29;20036;-60
2023/02/28 06:54:41;;;;;;;32.97;18.60;;;;;;;;;;4899343;29;20032;-60
2023/02/28 06:57:07;;;;;;;38.70;22.83;;;;;;;;;;4899409;29;20372;-59
2023/02/28 06:59:34;;;;;;;38.35;22.38;;;;;;;;;;4899144;29;20032;-60
2023/02/28 07:02:01;;;;;;;34.83;20.33;;;;;;;;;;4899023;29;20040;-59
2023/02/28 07:04:28;;;;;;;37.08;20.15;;;;;;;;;;4899103;29;20032;-67
2023/02/28 07:06:56;;;;;;;36.50;20.15;;;;;;;;;;4898468;29;20647;-61
2023/02/28 07:09:22;;;;;;;35.65;19.73;;;;;;;;;;4899070;29;20525;-62
2023/02/28 07:11:48;;;;;;;38.17;21.30;;;;;;;;;;4881746;29;20127;-59
2023/02/28 07:14:14;;;;;;;39.58;24.50;;;;;;;;;;4898955;29;20451;-61
2023/02/28 07:16:40;;;;;;;44.90;28.88;;;;;;;;;;4899003;29;20055;-58
2023/02/28 07:19:06;;;;;;;36.35;20.75;;;;;;;;;;4898291;29;20063;-59
2023/02/28 07:21:32;;;;;;;33.10;19.15;;;;;;;;;;4898815;29;20068;-59
2023/02/28 07:23:59;;;;;;;36.50;19.17;;;;;;;;;;4898648;29;20032;-59
2023/02/28 07:26:25;;;;;;;34.00;18.90;;;;;;;;;;4898486;29;20044;-61
2023/02/28 07:28:51;;;;;;;31.58;18.08;;;;;;;;;;4898516;29;20389;-61
2023/02/28 07:31:17;;;;;;;32.60;18.38;;;;;;;;;;4898418;29;20100;-60
2023/02/28 07:33:44;;;;;;;45.65;23.42;;;;;;;;;;4898408;29;20553;-61
2023/02/28 07:36:14;;;;;;;34.30;19.13;;;;;;;;;;4898424;29;20068;-62
2023/02/28 07:38:41;;;;;;;38.30;20.10;;;;;;;;;;4898724;29;20033;-59
2023/02/28 07:41:08;;;;;;;41.33;23.42;;;;;;;;;;4898469;29;20515;-59
2023/02/28 07:43:34;;;;;;;39.35;22.08;;;;;;;;;;4898234;29;20107;-59
2023/02/28 07:46:04;;;;;;;35.58;19.60;;;;;;;;;;4898632;29;20033;-61
2023/02/28 07:48:30;;;;;;;36.15;20.50;;;;;;;;;;4898451;29;20029;-59
2023/02/28 07:50:57;;;;;;;32.97;19.23;;;;;;;;;;4898764;29;20028;-59
2023/02/28 07:53:23;;;;;;;33.83;19.70;;;;;;;;;;4898159;29;20017;-62
2023/02/28 07:55:49;;;;;;;39.53;22.15;;;;;;;;;;4898401;29;20064;-64
2023/02/28 07:58:15;;;;;;;60.53;32.50;;;;;;;;;;4898535;29;20021;-60
2023/02/28 08:00:41;;;;;;;206.30;84.85;;;;;;;;;;4897913;29;20040;-65
2023/02/28 08:03:09;;;;;;;90.60;42.40;;;;;;;;;;4897532;29;20111;-60
2023/02/28 08:05:38;;;;;;;82.60;41.35;;;;;;;;;;4897130;29;20029;-61
2023/02/28 08:08:04;;;;;;;41.97;24.17;;;;;;;;;;4898229;29;20025;-71
2023/02/28 08:10:30;;;;;;;41.45;23.92;;;;;;;;;;4897897;29;20037;-59
2023/02/28 08:12:56;;;;;;;79.38;47.25;;;;;;;;;;4901643;29;20039;-61
2023/02/28 08:15:22;;;;;;;65.35;43.35;;;;;;;;;;4935447;29;20690;-60
2023/02/28 08:17:48;;;;;;;38.80;23.48;;;;;;;;;;4935536;29;20040;-72
2023/02/28 08:20:14;;;;;;;39.70;22.70;;;;;;;;;;4935514;29;20046;-72
2023/02/28 08:22:41;;;;;;;40.88;23.63;;;;;;;;;;4935703;29;20079;-61
2023/02/28 08:25:08;;;;;;;41.65;22.25;;;;;;;;;;4935835;29;20130;-67
2023/02/28 08:27:34;;;;;;;43.53;23.73;;;;;;;;;;4935911;29;20058;-61
2023/02/28 08:30:00;;;;;;;57.58;35.17;;;;;;;;;;4918087;29;20043;-66
2023/02/28 08:32:26;;;;;;;57.80;31.55;;;;;;;;;;4935547;29;20376;-61
2023/02/28 08:34:52;;;;;;;54.50;29.52;;;;;;;;;;4935539;29;20036;-76
2023/02/28 08:37:18;;;;;;;49.13;26.65;;;;;;;;;;4935590;29;20649;-61
2023/02/28 08:39:44;;;;;;;51.53;28.20;;;;;;;;;;4935578;29;20035;-62
2023/02/28 08:42:10;;;;;;;50.88;27.23;;;;;;;;;;4935483;29;20083;-59
2023/02/28 08:44:36;;;;;;;46.95;26.58;;;;;;;;;;4935602;29;20034;-59
2023/02/28 08:47:02;;;;;;;48.08;27.42;;;;;;;;;;4935347;29;20178;-76
2023/02/28 08:49:28;;;;;;;42.55;24.65;;;;;;;;;;4935074;29;20031;-59
2023/02/28 08:51:56;;;;;;;49.25;25.85;;;;;;;;;;4935468;29;20130;-59
2023/02/28 08:54:22;;;;;;;48.17;27.63;;;;;;;;;;4917962;29;20038;-64
2023/02/28 08:56:49;;;;;;;49.60;28.77;;;;;;;;;;4935266;29;20028;-60
2023/02/28 08:59:15;;;;;;;45.63;26.35;;;;;;;;;;4934962;29;20106;-75
2023/02/28 09:01:41;;;;;;;43.60;24.08;;;;;;;;;;4934926;29;20039;-57
2023/02/28 09:04:09;;;;;;;42.53;23.85;;;;;;;;;;4935109;29;20032;-58
2023/02/28 09:06:35;;;;;;;50.05;26.33;;;;;;;;;;4935427;29;20035;-67
2023/02/28 09:09:02;;;;;;;47.88;25.75;;;;;;;;;;4932085;29;20087;-59
2023/02/28 09:11:29;;;;;;;44.05;25.10;;;;;;;;;;4904072;29;20116;-59
2023/02/28 09:13:55;;;;;;;45.55;25.55;;;;;;;;;;4896795;29;20047;-58
2023/02/28 09:16:21;;;;;;;34.53;20.80;;;;;;;;;;4897012;29;20033;-60
2023/02/28 09:18:48;;;;;;;43.85;25.40;;;;;;;;;;4896273;29;20048;-59
2023/02/28 09:21:18;;;;;;;41.08;23.45;;;;;;;;;;4896624;29;20448;-64
2023/02/28 09:23:45;;;;;;;44.22;25.55;;;;;;;;;;4896590;29;20382;-67
2023/02/28 09:26:19;;;;;;;47.55;27.55;;;;;;;;;;4896781;29;20493;-66
2023/02/28 09:28:45;;;;;;;36.97;22.05;;;;;;;;;;4896553;29;20029;-58
2023/02/28 09:31:16;;;;;;;60.90;32.67;;;;;;;;;;4896552;29;20025;-58
2023/02/28 09:33:42;;;;;;;105.07;53.88;;;;;;;;;;4896582;29;20477;-58
2023/02/28 09:36:08;;;;;;;56.92;30.15;;;;;;;;;;4896516;29;20044;-60
2023/02/28 09:38:35;;;;;;;87.80;42.40;;;;;;;;;;4896582;29;20048;-61
2023/02/28 09:41:03;;;;;;;98.72;49.28;;;;;;;;;;4896395;29;20078;-58
2023/02/28 09:43:32;;;;;;;58.75;34.08;;;;;;;;;;4878894;29;20036;-61
2023/02/28 09:46:17;;;;;;;51.80;28.77;;;;;;;;;;4896384;29;20039;-60
2023/02/28 09:48:46;;;;;;;41.63;22.33;;;;;;;;;;4896668;29;20401;-58
2023/02/28 09:51:27;;;;;;;40.92;21.40;;;;;;;;;;4912021;29;20040;-68
2023/02/28 09:53:53;;;;;;;35.10;20.83;;;;;;;;;;4915307;29;20124;-58
2023/02/28 09:56:25;;;;;;;35.17;20.40;;;;;;;;;;4915105;29;20476;-58
2023/02/28 09:58:55;;;;;;;34.20;20.48;;;;;;;;;;4915284;29;20476;-58
2023/02/28 10:01:37;;;;;;;33.03;19.98;;;;;;;;;;4914873;29;20046;-60
2023/02/28 10:04:12;;;;;;;56.38;32.45;;;;;;;;;;4915033;29;20350;-63
2023/02/28 10:06:49;;;;;;;62.38;34.15;;;;;;;;;;4915142;29;20051;-57
2023/02/28 10:09:41;;;;;;;48.15;26.88;;;;;;;;;;4915088;29;20035;-58
2023/02/28 10:12:09;;;;;;;40.42;25.10;;;;;;;;;;4910695;29;20495;-73
2023/02/28 10:14:35;;;;;;;44.20;25.30;;;;;;;;;;4914616;29;20166;-57
2023/02/28 10:17:09;;;;;;;45.63;26.63;;;;;;;;;;4914705;29;20036;-59
2023/02/28 10:19:39;;;;;;;42.83;25.65;;;;;;;;;;4914149;29;20508;-60
2023/02/28 10:22:17;;;;;;;37.72;23.25;;;;;;;;;;4897768;29;20111;-59
2023/02/28 10:24:47;;;;;;;37.83;22.55;;;;;;;;;;4914657;29;20400;-60
2023/02/28 10:27:13;;;;;;;44.28;23.67;;;;;;;;;;4914440;29;20047;-73
2023/02/28 10:29:40;;;;;;;41.63;21.85;;;;;;;;;;4914736;29;20540;-68
2023/02/28 10:32:07;;;;;;;38.33;22.33;;;;;;;;;;4914620;29;20028;-73
2023/02/28 10:34:33;;;;;;;39.55;23.25;;;;;;;;;;4914599;29;20024;-62
2023/02/28 10:37:07;;;;;;;37.70;23.00;;;;;;;;;;4914745;29;20028;-60
2023/02/28 10:39:46;;;;;;;49.45;24.42;;;;;;;;;;4914285;29;20028;-58
2023/02/28 10:42:38;;;;;;;43.42;23.45;;;;;;;;;;4914804;29;20124;-58
2023/02/28 10:45:11;;;;;;;41.08;24.50;;;;;;;;;;4909422;29;20036;-58
2023/02/28 10:47:41;;;;;;;38.70;23.02;;;;;;;;;;4902532;29;20160;-72
2023/02/28 10:50:26;;;;;;;40.92;23.42;;;;;;;;;;4895648;29;20447;-57
2023/02/28 10:52:53;;;;;;;37.58;22.42;;;;;;;;;;4895755;29;20032;-58
2023/02/28 10:55:25;;;;;;;47.58;25.90;;;;;;;;;;4895594;29;20492;-58
2023/02/28 10:57:51;;;;;;;38.30;22.90;;;;;;;;;;4895787;29;20104;-63
2023/02/28 11:00:19;;;;;;;38.85;23.00;;;;;;;;;;4895492;29;20037;-58
2023/02/28 11:02:46;;;;;;;45.25;26.20;;;;;;;;;;4895716;29;20149;-66
2023/02/28 11:05:41;;;;;;;46.63;29.23;;;;;;;;;;4895330;29;20036;-57
2023/02/28 11:08:15;;;;;;;45.10;25.98;;;;;;;;;;4801223;29;20058;-57
2023/02/28 11:10:45;;;;;;;52.47;30.88;;;;;;;;;;4801231;29;20611;-60
2023/02/28 11:13:18;;;;;;;52.45;31.42;;;;;;;;;;4801107;29;20122;-60
2023/02/28 11:15:50;;;;;;;46.20;26.92;;;;;;;;;;4801227;29;20042;-58
2023/02/28 11:18:25;;;;;;;34.75;21.75;;;;;;;;;;4800537;29;20059;-58
2023/02/28 11:20:52;;;;;;;49.70;28.00;;;;;;;;;;4800953;29;20453;-58
2023/02/28 11:23:19;;;;;;;51.53;30.05;;;;;;;;;;4801099;29;20053;-58
2023/02/28 11:25:50;;;;;;;39.00;26.15;;;;;;;;;;4800882;29;20092;-60
2023/02/28 11:28:28;;;;;;;41.45;26.70;;;;;;;;;;4800746;29;20075;-59
2023/02/28 11:31:00;;;;;;;47.72;31.25;;;;;;;;;;4800938;29;20046;-73
2023/02/28 11:33:32;;;;;;;38.35;24.10;;;;;;;;;;4800973;29;20518;-60
2023/02/28 11:36:04;;;;;;;42.05;26.33;;;;;;;;;;4801107;29;20054;-59
2023/02/28 11:38:33;;;;;;;41.05;24.35;;;;;;;;;;4800804;29;20042;-71
2023/02/28 11:41:01;;;;;;;37.38;23.77;;;;;;;;;;4804307;29;20443;-72
2023/02/28 11:43:46;;;;;;;38.88;23.95;;;;;;;;;;4808819;29;20544;-60
2023/02/28 11:46:15;;;;;;;42.88;27.27;;;;;;;;;;4879870;29;20081;-73
2023/02/28 11:49:01;;;;;;;44.80;27.58;;;;;;;;;;4879272;29;20438;-71
2023/02/28 11:51:30;;;;;;;43.95;25.92;;;;;;;;;;4879486;29;20045;-70
2023/02/28 11:53:56;;;;;;;41.80;26.85;;;;;;;;;;4880018;29;20033;-72
2023/02/28 11:56:25;;;;;;;47.58;28.10;;;;;;;;;;4879657;29;20039;-59
2023/02/28 11:58:55;;;;;;;49.78;29.17;;;;;;;;;;4879712;29;20081;-67
2023/02/28 12:01:24;;;;;;;54.10;31.13;;;;;;;;;;4879345;29;20454;-69
2023/02/28 12:04:06;;;;;;;51.45;29.98;;;;;;;;;;4879228;29;20029;-64
2023/02/28 12:06:46;;;;;;;48.80;28.48;;;;;;;;;;4879711;29;20033;-68
2023/02/28 12:09:12;;;;;;;46.70;27.55;;;;;;;;;;4879520;29;20041;-59
2023/02/28 12:11:56;;;;;;;49.22;29.95;;;;;;;;;;4879561;29;20128;-60
2023/02/28 12:14:40;;;;;;;47.45;28.52;;;;;;;;;;4879172;29;20032;-66
2023/02/28 12:17:42;;;;;;;56.78;29.83;;;;;;;;;;4881478;29;20120;-61
2023/02/28 12:20:21;;;;;;;53.80;31.20;;;;;;;;;;4826311;29;20045;-58
2023/02/28 12:22:58;;;;;;;54.55;31.92;;;;;;;;;;4821479;29;20577;-65
2023/02/28 12:25:43;;;;;;;59.55;31.77;;;;;;;;;;4825272;29;20410;-71
2023/02/28 12:28:14;;;;;;;57.55;31.58;;;;;;;;;;4826383;29;20553;-69
2023/02/28 12:31:00;;;;;;;51.78;26.15;;;;;;;;;;4825978;29;20083;-70
2023/02/28 12:33:29;;;;;;;46.90;27.65;;;;;;;;;;4815120;29;20608;-58
2023/02/28 12:35:56;;;;;;;48.78;27.25;;;;;;;;;;4821318;29;20166;-64
2023/02/28 12:38:24;;;;;;;45.83;27.88;;;;;;;;;;4821358;29;20415;-59
2023/02/28 12:40:56;;;;;;;50.38;28.45;;;;;;;;;;4821130;29;20050;-71
2023/02/28 12:43:25;;;;;;;48.10;27.60;;;;;;;;;;4821079;29;20038;-72
2023/02/28 12:45:59;;;;;;;57.63;33.35;;;;;;;;;;4820905;29;20046;-65
2023/02/28 12:48:28;;;;;;;56.83;32.65;;;;;;;;;;4820495;29;20047;-69
2023/02/28 12:50:54;;;;;;;56.10;31.60;;;;;;;;;;4820695;29;20076;-59
2023/02/28 12:53:31;;;;;;;57.90;31.98;;;;;;;;;;4834896;29;20076;-60
2023/02/28 12:56:00;;;;;;;68.68;35.47;;;;;;;;;;4897161;29;20485;-77
2023/02/28 12:58:35;;;;;;;78.00;39.28;;;;;;;;;;4897231;29;20028;-66
2023/02/28 13:01:16;;;;;;;61.95;35.42;;;;;;;;;;4896313;29;20173;-67
2023/02/28 13:03:42;;;;;;;99.65;53.80;;;;;;;;;;4896195;29;20048;-63
2023/02/28 13:06:14;;;;;;;83.03;43.28;;;;;;;;;;4896597;29;20048;-65
2023/02/28 13:08:40;;;;;;;;;;;;;;;;;;4896321;29;20149;-59
2023/02/28 13:11:06;;;;;;;57.95;34.53;;;;;;;;;;4897091;29;20288;-75
2023/02/28 13:13:32;;;;;;;68.55;36.65;;;;;;;;;;4896566;29;20036;-71
2023/02/28 13:16:00;;;;;;;76.43;40.40;;;;;;;;;;4896482;29;20119;-72
2023/02/28 13:18:32;;;;;;;84.13;43.47;;;;;;;;;;4896461;29;20067;-73
2023/02/28 13:20:59;;;;;;;69.05;38.90;;;;;;;;;;4896909;29;20095;-64
2023/02/28 13:23:39;;;;;;;105.20;52.97;;;;;;;;;;4879840;29;20159;-71
2023/02/28 13:26:05;;;;;;;96.40;47.78;;;;;;;;;;4896773;29;20032;-67
2023/02/28 13:28:50;;;;;;;55.33;32.03;;;;;;;;;;4896354;29;20032;-70
2023/02/28 13:31:18;;;;;;;65.40;36.28;;;;;;;;;;4879640;29;20400;-60
2023/02/28 13:33:56;;;;;;;121.70;57.85;;;;;;;;;;4896664;29;20032;-62
2023/02/28 13:36:31;;;;;;;84.93;45.20;;;;;;;;;;4898485;29;20024;-70
2023/02/28 13:39:03;;;;;;;105.00;52.70;;;;;;;;;;4896786;29;20084;-60
2023/02/28 13:41:29;;;;;;;58.22;32.88;;;;;;;;;;4896445;29;20393;-77
2023/02/28 13:44:02;;;;;;;126.07;55.55;;;;;;;;;;4896683;29;20024;-69
2023/02/28 13:46:28;;;;;;;69.53;37.20;;;;;;;;;;4896611;29;20028;-65
2023/02/28 13:48:54;;;;;;;97.57;49.72;;;;;;;;;;4896201;29;20473;-66
2023/02/28 13:51:40;;;;;;;59.78;34.42;;;;;;;;;;4896220;29;20058;-75
2023/02/28 13:54:25;;;;;;;57.58;34.33;;;;;;;;;;4896475;29;20029;-74
2023/02/28 13:56:57;;;;;;;45.58;27.00;;;;;;;;;;4896319;29;20103;-62
2023/02/28 13:59:44;;;;;;;44.63;26.30;;;;;;;;;;4897083;29;20035;-74
2023/02/28 14:02:29;;;;;;;44.20;26.17;;;;;;;;;;4895627;29;20508;-62
2023/02/28 14:05:01;;;;;;;35.33;21.23;;;;;;;;;;4916911;29;20048;-61
2023/02/28 14:07:30;;;;;;;39.13;23.25;;;;;;;;;;4917557;29;20024;-71
2023/02/28 14:09:58;;;;;;;38.78;22.13;;;;;;;;;;4905532;29;20084;-68
2023/02/28 14:12:43;;;;;;;42.00;23.52;;;;;;;;;;4900652;29;20025;-63
2023/02/28 14:15:28;;;;;;;42.97;23.40;;;;;;;;;;4895766;29;20029;-63
2023/02/28 14:17:55;;;;;;;31.15;19.08;;;;;;;;;;4896104;29;20144;-71
2023/02/28 14:20:21;;;;;;;28.33;16.50;;;;;;;;;;4895434;29;20499;-62
2023/02/28 14:23:16;;;;;;;30.40;17.77;;;;;;;;;;4896798;29;20053;-63
2023/02/28 14:26:03;;;;;;;31.52;18.80;;;;;;;;;;4895875;29;20036;-59
2023/02/28 14:28:48;;;;;;;35.50;19.50;;;;;;;;;;4896815;29;20248;-66
2023/02/28 14:31:24;;;;;;;32.25;18.10;;;;;;;;;;4902055;29;20036;-62
2023/02/28 14:33:50;;;;;;;31.88;18.27;;;;;;;;;;4904907;29;20020;-67
2023/02/28 14:36:22;;;;;;;38.15;20.83;;;;;;;;;;4906504;29;20088;-63
2023/02/28 14:38:58;;;;;;;77.88;34.15;;;;;;;;;;4903306;29;20029;-73
2023/02/28 14:41:27;;;;;;;51.25;28.85;;;;;;;;;;4903093;29;20036;-74
2023/02/28 14:43:56;;;;;;;35.25;21.23;;;;;;;;;;4905037;29;20105;-75
2023/02/28 14:46:23;;;;;;;30.20;18.48;;;;;;;;;;4895915;29;20020;-60
2023/02/28 14:48:49;;;;;;;26.15;16.73;;;;;;;;;;4895327;29;20041;-74
2023/02/28 14:51:19;;;;;;;25.90;16.75;;;;;;;;;;4895772;29;20119;-71
2023/02/28 14:53:48;;;;;;;27.23;16.00;;;;;;;;;;4895780;29;20461;-64
2023/02/28 14:56:22;;;;;;;25.27;16.17;;;;;;;;;;4895870;29;20025;-59
2023/02/28 14:58:52;;;;;;;27.90;17.92;;;;;;;;;;4895518;29;20043;-77
2023/02/28 15:01:20;;;;;;;25.85;15.68;;;;;;;;;;4895374;29;20045;-75
2023/02/28 15:03:47;;;;;;;26.10;15.10;;;;;;;;;;4895725;29;20496;-64
2023/02/28 15:06:14;;;;;;;24.70;15.10;;;;;;;;;;4895648;29;20442;-81
2023/02/28 15:08:41;;;;;;;34.42;19.13;;;;;;;;;;4895393;29;20025;-78
2023/02/28 15:11:09;;;;;;;51.50;25.25;;;;;;;;;;4895562;29;20033;-73
2023/02/28 15:13:44;;;;;;;46.85;23.30;;;;;;;;;;4897060;29;20037;-64
2023/02/28 15:16:13;;;;;;;36.70;20.23;;;;;;;;;;4899026;29;20017;-78
2023/02/28 15:18:49;;;;;;;37.17;19.45;;;;;;;;;;4898562;29;20629;-67
2023/02/28 15:21:26;;;;;;;40.75;20.73;;;;;;;;;;4899110;29;20075;-74
2023/02/28 15:24:12;;;;;;;42.65;21.73;;;;;;;;;;4898898;29;20031;-75
2023/02/28 15:26:39;;;;;;;42.30;23.52;;;;;;;;;;4804250;29;20531;-82
2023/02/28 15:29:07;;;;;;;44.15;24.35;;;;;;;;;;4803855;29;20091;-72
2023/02/28 15:31:35;;;;;;;43.38;25.75;;;;;;;;;;4804452;29;20050;-61
2023/02/28 15:34:06;;;;;;;48.42;28.08;;;;;;;;;;4804191;29;20031;-70
2023/02/28 15:36:36;;;;;;;40.08;22.77;;;;;;;;;;4803859;29;20471;-74
2023/02/28 15:39:02;;;;;;;35.88;21.20;;;;;;;;;;4803634;29;20061;-72
2023/02/28 15:41:31;;;;;;;33.03;20.33;;;;;;;;;;4803663;29;20505;-62
2023/02/28 15:44:16;;;;;;;52.58;26.50;;;;;;;;;;4804474;29;20039;-71
2023/02/28 15:46:44;;;;;;;43.13;22.80;;;;;;;;;;4804364;29;20046;-65
2023/02/28 15:49:19;;;;;;;32.45;19.48;;;;;;;;;;4804114;29;20065;-72
2023/02/28 15:51:45;;;;;;;31.65;19.42;;;;;;;;;;4812108;29;20042;-71
2023/02/28 15:54:16;;;;;;;33.53;19.05;;;;;;;;;;4820902;29;20125;-74
2023/02/28 15:56:46;;;;;;;31.40;18.80;;;;;;;;;;4820754;29;20083;-63
2023/02/28 15:59:20;;;;;;;34.28;19.38;;;;;;;;;;4822329;29;20399;-69
2023/02/28 16:01:47;;;;;;;36.30;20.85;;;;;;;;;;4784045;29;20047;-68
2023/02/28 16:04:15;;;;;;;32.08;19.40;;;;;;;;;;4867390;29;20064;-60
2023/02/28 16:07:00;;;;;;;33.55;20.20;;;;;;;;;;4907257;29;20060;-63
2023/02/28 16:09:27;;;;;;;37.22;21.63;;;;;;;;;;4906866;29;20024;-69
2023/02/28 16:11:54;;;;;;;32.45;19.88;;;;;;;;;;4905231;29;20464;-73
2023/02/28 16:14:27;;;;;;;34.40;20.15;;;;;;;;;;4906461;29;20028;-68
2023/02/28 16:17:04;;;;;;;36.50;20.48;;;;;;;;;;4898044;29;20551;-73
2023/02/28 16:19:30;;;;;;;35.38;22.25;;;;;;;;;;4897496;29;20060;-69
2023/02/28 16:21:57;;;;;;;37.63;21.73;;;;;;;;;;4897601;29;20045;-67
2023/02/28 16:24:23;;;;;;;33.97;20.60;;;;;;;;;;4897416;29;20029;-60
2023/02/28 16:26:51;;;;;;;31.80;19.45;;;;;;;;;;4897600;29;20039;-72
2023/02/28 16:29:29;;;;;;;31.38;19.00;;;;;;;;;;4897511;29;20469;-65
2023/02/28 16:31:55;;;;;;;32.63;19.95;;;;;;;;;;4897689;29;20425;-65
2023/02/28 16:34:22;;;;;;;31.52;18.80;;;;;;;;;;4897710;29;20031;-74
2023/02/28 16:36:48;;;;;;;34.10;20.00;;;;;;;;;;4911353;29;20099;-71
2023/02/28 16:39:15;;;;;;;34.13;19.92;;;;;;;;;;4926072;29;20062;-63
2023/02/28 16:41:45;;;;;;;35.35;20.52;;;;;;;;;;4907912;29;20130;-69
2023/02/28 16:44:14;;;;;;;35.78;21.70;;;;;;;;;;4907015;29;20032;-67
2023/02/28 16:46:40;;;;;;;34.67;20.42;;;;;;;;;;4906783;29;20079;-74
2023/02/28 16:49:11;;;;;;;43.30;23.10;;;;;;;;;;4904038;29;20096;-59
2023/02/28 16:51:37;;;;;;;45.92;25.92;;;;;;;;;;4897370;29;20033;-62
2023/02/28 16:54:03;;;;;;;41.85;25.45;;;;;;;;;;4880216;29;20066;-73
2023/02/28 16:56:29;;;;;;;42.65;24.70;;;;;;;;;;4897194;29;20536;-71
2023/02/28 16:58:58;;;;;;;38.75;22.25;;;;;;;;;;4905886;29;20062;-72
2023/02/28 17:01:26;;;;;;;41.85;22.95;;;;;;;;;;4910965;29;20107;-70
2023/02/28 17:03:53;;;;;;;44.63;23.10;;;;;;;;;;4884570;29;20028;-69
2023/02/28 17:06:27;;;;;;;41.50;23.60;;;;;;;;;;4903920;29;20036;-69
2023/02/28 17:08:53;;;;;;;43.92;25.35;;;;;;;;;;4915921;29;20051;-64
2023/02/28 17:11:19;;;;;;;46.70;26.27;;;;;;;;;;4915621;29;20035;-68
2023/02/28 17:13:48;;;;;;;55.88;30.00;;;;;;;;;;4916094;29;20090;-64
2023/02/28 17:16:35;;;;;;;53.30;29.98;;;;;;;;;;4918562;29;20036;-66
2023/02/28 17:19:05;;;;;;;57.03;31.38;;;;;;;;;;4918302;29;20841;-67
2023/02/28 17:21:33;;;;;;;84.13;40.47;;;;;;;;;;4902071;29;20096;-73
2023/02/28 17:24:00;;;;;;;88.43;41.03;;;;;;;;;;4898985;29;20028;-60
2023/02/28 17:26:27;;;;;;;60.00;31.88;;;;;;;;;;4916920;29;20032;-71
2023/02/28 17:28:55;;;;;;;60.00;33.97;;;;;;;;;;4917410;29;20104;-69
2023/02/28 17:31:22;;;;;;;54.38;29.38;;;;;;;;;;4915299;29;20044;-67
2023/02/28 17:33:48;;;;;;;57.08;30.85;;;;;;;;;;4915404;29;20559;-69
2023/02/28 17:36:15;;;;;;;50.72;29.02;;;;;;;;;;4914882;29;20036;-67
2023/02/28 17:38:41;;;;;;;52.75;29.95;;;;;;;;;;4919525;29;20093;-60
2023/02/28 17:41:09;;;;;;;48.38;27.88;;;;;;;;;;4916344;29;20130;-63
2023/02/28 17:43:35;;;;;;;49.90;28.52;;;;;;;;;;4916319;29;20029;-71
2023/02/28 17:46:01;;;;;;;52.72;28.77;;;;;;;;;;4916342;29;20182;-71
2023/02/28 17:48:27;;;;;;;49.10;28.58;;;;;;;;;;4915499;29;20036;-71
2023/02/28 17:50:53;;;;;;;51.88;29.58;;;;;;;;;;4916453;29;20504;-71
2023/02/28 17:53:22;;;;;;;50.40;29.30;;;;;;;;;;4915406;29;20122;-72
2023/02/28 17:55:49;;;;;;;57.97;30.58;;;;;;;;;;4899339;29;20067;-67
2023/02/28 17:58:15;;;;;;;52.17;30.30;;;;;;;;;;4914940;29;20028;-69
2023/02/28 18:00:41;;;;;;;56.85;31.52;;;;;;;;;;4907440;29;20040;-61
2023/02/28 18:03:08;;;;;;;58.75;32.00;;;;;;;;;;4908537;29;20028;-74
2023/02/28 18:05:35;;;;;;;74.70;39.33;;;;;;;;;;4904337;29;20071;-71
2023/02/28 18:08:01;;;;;;;79.30;40.33;;;;;;;;;;4905013;29;20595;-73
2023/02/28 18:10:28;;;;;;;70.63;38.15;;;;;;;;;;4896657;29;20035;-80
2023/02/28 18:12:54;;;;;;;71.15;39.83;;;;;;;;;;4878804;29;20075;-62
2023/02/28 18:15:21;;;;;;;76.40;41.38;;;;;;;;;;4903483;29;20084;-74
2023/02/28 18:17:48;;;;;;;79.72;41.78;;;;;;;;;;4897725;29;20445;-61
2023/02/28 18:20:14;;;;;;;107.90;52.42;;;;;;;;;;4908745;29;20040;-63
2023/02/28 18:22:41;;;;;;;90.82;46.50;;;;;;;;;;4897070;29;20040;-70
2023/02/28 18:25:08;;;;;;;66.10;36.15;;;;;;;;;;4914466;29;20031;-72
2023/02/28 18:27:35;;;;;;;59.28;33.65;;;;;;;;;;4914258;29;20404;-65
2023/02/28 18:30:01;;;;;;;63.33;35.22;;;;;;;;;;4913977;29;20051;-73
2023/02/28 18:32:28;;;;;;;66.10;35.75;;;;;;;;;;4913955;29;20025;-64
2023/02/28 18:34:54;;;;;;;65.63;38.03;;;;;;;;;;4914175;29;20395;-64
2023/02/28 18:37:20;;;;;;;68.82;37.20;;;;;;;;;;4914187;29;20468;-73
2023/02/28 18:39:46;;;;;;;73.95;38.83;;;;;;;;;;4914308;29;20024;-64
2023/02/28 18:42:13;;;;;;;66.88;37.90;;;;;;;;;;4914468;29;20111;-72
2023/02/28 18:44:39;;;;;;;75.40;41.70;;;;;;;;;;4914547;29;20453;-72
2023/02/28 18:47:05;;;;;;;76.70;42.88;;;;;;;;;;4914566;29;20362;-65
2023/02/28 18:49:36;;;;;;;73.72;41.50;;;;;;;;;;4917006;29;20074;-73
2023/02/28 18:52:02;;;;;;;76.47;41.17;;;;;;;;;;4918027;29;20506;-67
2023/02/28 18:54:29;;;;;;;75.47;42.05;;;;;;;;;;4918402;29;20036;-67
2023/02/28 18:56:55;;;;;;;77.43;41.78;;;;;;;;;;4918552;29;20024;-65
2023/02/28 18:59:22;;;;;;;77.85;42.50;;;;;;;;;;4918264;29;20032;-72
2023/02/28 19:01:48;;;;;;;76.10;41.03;;;;;;;;;;4917828;29;20044;-73
2023/02/28 19:04:14;;;;;;;81.97;41.58;;;;;;;;;;4900814;29;20033;-73
2023/02/28 19:06:40;;;;;;;74.38;39.20;;;;;;;;;;4918047;29;20069;-74
2023/02/28 19:09:07;;;;;;;80.22;40.83;;;;;;;;;;4918141;29;20043;-74
2023/02/28 19:11:34;;;;;;;80.35;43.63;;;;;;;;;;4918278;29;20028;-63
2023/02/28 19:14:00;;;;;;;84.32;43.08;;;;;;;;;;4918009;29;20025;-61
2023/02/28 19:16:27;;;;;;;75.30;41.33;;;;;;;;;;4918028;29;20028;-64
2023/02/28 19:18:53;;;;;;;77.97;38.63;;;;;;;;;;4917521;29;20063;-73
2023/02/28 19:21:20;;;;;;;77.72;37.72;;;;;;;;;;4917549;29;20051;-69
2023/02/28 19:23:47;;;;;;;83.95;40.95;;;;;;;;;;4917814;29;20111;-74
2023/02/28 19:26:18;;;;;;;83.57;40.50;;;;;;;;;;4917542;29;20028;-61
2023/02/28 19:28:44;;;;;;;87.55;41.17;;;;;;;;;;4917786;29;20025;-61
2023/02/28 19:31:15;;;;;;;81.65;39.67;;;;;;;;;;4917613;29;20032;-72
2023/02/28 19:33:41;;;;;;;80.88;39.58;;;;;;;;;;4917428;29;20036;-68
2023/02/28 19:36:08;;;;;;;80.78;39.17;;;;;;;;;;4917822;29;20024;-73
2023/02/28 19:38:34;;;;;;;86.20;40.15;;;;;;;;;;4917436;29;20412;-72
2023/02/28 19:41:01;;;;;;;86.85;41.70;;;;;;;;;;4917249;29;20044;-62
2023/02/28 19:43:27;;;;;;;86.95;42.13;;;;;;;;;;4917501;29;20032;-59
2023/02/28 19:45:53;;;;;;;92.28;46.00;;;;;;;;;;4917214;29;20056;-66
2023/02/28 19:48:23;;;;;;;90.05;43.97;;;;;;;;;;4917248;29;20105;-64
2023/02/28 19:50:49;;;;;;;92.82;43.78;;;;;;;;;;4917337;29;20031;-68
2023/02/28 19:53:16;;;;;;;98.82;45.58;;;;;;;;;;4916674;29;20504;-66
2023/02/28 19:55:42;;;;;;;90.78;43.00;;;;;;;;;;4917040;29;20124;-70
2023/02/28 19:58:09;;;;;;;95.65;43.38;;;;;;;;;;4916940;29;20032;-70
2023/02/28 20:00:35;;;;;;;103.28;46.10;;;;;;;;;;4909352;29;20038;-62
2023/02/28 20:03:01;;;;;;;94.53;44.33;;;;;;;;;;4915351;29;20039;-67
2023/02/28 20:05:27;;;;;;;93.88;40.17;;;;;;;;;;4906554;29;20028;-64
2023/02/28 20:07:53;;;;;;;81.78;38.95;;;;;;;;;;4905292;29;20067;-60
2023/02/28 20:10:19;;;;;;;79.40;37.75;;;;;;;;;;4907189;29;20059;-63
2023/02/28 20:12:45;;;;;;;77.63;37.55;;;;;;;;;;4911943;29;20028;-70
2023/02/28 20:15:11;;;;;;;76.22;38.30;;;;;;;;;;4917063;29;20380;-72
2023/02/28 20:17:39;;;;;;;78.93;38.80;;;;;;;;;;4899323;29;20448;-73
2023/02/28 20:20:08;;;;;;;79.97;36.97;;;;;;;;;;4910018;29;20056;-59
2023/02/28 20:22:35;;;;;;;74.25;36.17;;;;;;;;;;4906914;29;20048;-63
2023/02/28 20:25:01;;;;;;;71.97;34.67;;;;;;;;;;4902466;29;20413;-70
2023/02/28 20:27:27;;;;;;;76.70;35.83;;;;;;;;;;4900594;29;20088;-61
2023/02/28 20:29:53;;;;;;;77.72;35.30;;;;;;;;;;4883175;29;20044;-61
2023/02/28 20:32:19;;;;;;;90.47;42.28;;;;;;;;;;4897836;29;20037;-61
2023/02/28 20:34:45;;;;;;;66.30;34.10;;;;;;;;;;4897617;29;20036;-61
2023/02/28 20:37:11;;;;;;;63.92;31.98;;;;;;;;;;4897513;29;20077;-75
2023/02/28 20:39:37;;;;;;;67.28;32.67;;;;;;;;;;4897810;29;20152;-77
2023/02/28 20:42:03;;;;;;;61.22;31.20;;;;;;;;;;4897728;29;20086;-77
2023/02/28 20:44:29;;;;;;;65.35;34.72;;;;;;;;;;4897566;29;20521;-63
2023/02/28 20:46:55;;;;;;;61.80;31.15;;;;;;;;;;4897775;29;20042;-76